sensor_id;sensor_type;location;lat;lon;timestamp;P1;durP1;ratioP1;P2;durP2;ratioP2
10677;SDS011;5387;48.722;9.110;2023-07-28T00:00:44;2.47;;;2.28;;
10677;SDS011;5387;48.722;9.110;2023-07-28T00:03:10;3.78;;;2.20;;
10677;SDS011;5387;48.722;9.110;2023-07-28T00:05:38;2.03;;;1.92;;
10677;SDS011;5387;48.722;9.110;2023-07-28T00:08:05;4.88;;;2.05;;
10677;SDS011;5387;48.722;9.110;2023-07-28T00:10:32;3.10;;;2.58;;
10677;SDS011;5387;48.722;9.110;2023-07-28T00:12:59;2.90;;;2.10;;
10677;SDS011;5387;48.722;9.110;2023-07-28T00:15:27;2.72;;;2.45;;
10677;SDS011;5387;48.722;9.110;2023-07-28T00:17:54;3.55;;;2.15;;
10677;SDS011;5387;48.722;9.110;2023-07-28T00:20:21;4.43;;;2.28;;
10677;SDS011;5387;48.722;9.110;2023-07-28T00:22:49;2.35;;;2.15;;
10677;SDS011;5387;48.722;9.110;2023-07-28T00:25:16;2.58;;;2.38;;
10677;SDS011;5387;48.722;9.110;2023-07-28T00:27:42;2.17;;;1.98;;
10677;SDS011;5387;48.722;9.110;2023-07-28T00:30:10;2.47;;;2.28;;
10677;SDS011;5387;48.722;9.110;2023-07-28T00:32:37;3.25;;;2.28;;
10677;SDS011;5387;48.722;9.110;2023-07-28T00:35:04;4.63;;;2.05;;
10677;SDS011;5387;48.722;9.110;2023-07-28T00:37:32;2.88;;;2.10;;
10677;SDS011;5387;48.722;9.110;2023-07-28T00:40:00;2.38;;;2.17;;
10677;SDS011;5387;48.722;9.110;2023-07-28T00:42:26;3.75;;;2.33;;
10677;SDS011;5387;48.722;9.110;2023-07-28T00:44:53;2.80;;;2.20;;
10677;SDS011;5387;48.722;9.110;2023-07-28T00:47:20;2.40;;;2.08;;
10677;SDS011;5387;48.722;9.110;2023-07-28T00:49:47;6.47;;;1.90;;
10677;SDS011;5387;48.722;9.110;2023-07-28T00:52:14;2.15;;;1.92;;
10677;SDS011;5387;48.722;9.110;2023-07-28T00:54:41;2.75;;;2.42;;
10677;SDS011;5387;48.722;9.110;2023-07-28T00:57:09;2.13;;;1.95;;
10677;SDS011;5387;48.722;9.110;2023-07-28T00:59:36;3.75;;;2.20;;
10677;SDS011;5387;48.722;9.110;2023-07-28T01:02:03;4.30;;;2.00;;
10677;SDS011;5387;48.722;9.110;2023-07-28T01:04:30;2.92;;;2.28;;
10677;SDS011;5387;48.722;9.110;2023-07-28T01:06:59;2.53;;;1.83;;
10677;SDS011;5387;48.722;9.110;2023-07-28T01:09:33;2.83;;;1.60;;
10677;SDS011;5387;48.722;9.110;2023-07-28T01:12:06;4.22;;;2.08;;
10677;SDS011;5387;48.722;9.110;2023-07-28T01:14:35;3.63;;;2.35;;
10677;SDS011;5387;48.722;9.110;2023-07-28T01:17:02;2.67;;;1.90;;
10677;SDS011;5387;48.722;9.110;2023-07-28T01:19:29;2.03;;;1.92;;
10677;SDS011;5387;48.722;9.110;2023-07-28T01:21:57;2.30;;;2.10;;
10677;SDS011;5387;48.722;9.110;2023-07-28T01:24:45;2.20;;;2.00;;
10677;SDS011;5387;48.722;9.110;2023-07-28T01:27:19;2.30;;;2.10;;
10677;SDS011;5387;48.722;9.110;2023-07-28T01:29:46;2.22;;;2.03;;
10677;SDS011;5387;48.722;9.110;2023-07-28T01:32:14;2.13;;;1.63;;
10677;SDS011;5387;48.722;9.110;2023-07-28T01:34:41;2.92;;;1.95;;
10677;SDS011;5387;48.722;9.110;2023-07-28T01:37:07;2.92;;;2.25;;
10677;SDS011;5387;48.722;9.110;2023-07-28T01:39:34;2.47;;;2.28;;
10677;SDS011;5387;48.722;9.110;2023-07-28T01:42:01;2.40;;;1.98;;
10677;SDS011;5387;48.722;9.110;2023-07-28T01:44:29;2.08;;;1.98;;
10677;SDS011;5387;48.722;9.110;2023-07-28T01:46:56;1.85;;;1.75;;
10677;SDS011;5387;48.722;9.110;2023-07-28T01:49:23;3.20;;;2.17;;
10677;SDS011;5387;48.722;9.110;2023-07-28T01:51:49;2.33;;;2.15;;
10677;SDS011;5387;48.722;9.110;2023-07-28T01:54:16;2.30;;;1.80;;
10677;SDS011;5387;48.722;9.110;2023-07-28T01:56:43;2.30;;;2.10;;
10677;SDS011;5387;48.722;9.110;2023-07-28T01:59:10;2.25;;;2.05;;
10677;SDS011;5387;48.722;9.110;2023-07-28T02:01:39;2.25;;;1.90;;
10677;SDS011;5387;48.722;9.110;2023-07-28T02:04:06;3.08;;;2.10;;
10677;SDS011;5387;48.722;9.110;2023-07-28T02:06:33;2.20;;;2.00;;
10677;SDS011;5387;48.722;9.110;2023-07-28T02:09:00;2.20;;;2.00;;
10677;SDS011;5387;48.722;9.110;2023-07-28T02:11:27;2.78;;;2.15;;
10677;SDS011;5387;48.722;9.110;2023-07-28T02:13:53;2.85;;;2.20;;
10677;SDS011;5387;48.722;9.110;2023-07-28T02:16:20;2.33;;;1.90;;
10677;SDS011;5387;48.722;9.110;2023-07-28T02:18:48;4.95;;;1.90;;
10677;SDS011;5387;48.722;9.110;2023-07-28T02:21:15;3.13;;;2.42;;
10677;SDS011;5387;48.722;9.110;2023-07-28T02:23:42;3.67;;;2.15;;
10677;SDS011;5387;48.722;9.110;2023-07-28T02:26:09;2.00;;;1.80;;
10677;SDS011;5387;48.722;9.110;2023-07-28T02:28:35;3.25;;;2.20;;
10677;SDS011;5387;48.722;9.110;2023-07-28T02:31:02;3.08;;;2.08;;
10677;SDS011;5387;48.722;9.110;2023-07-28T02:33:29;4.72;;;2.30;;
10677;SDS011;5387;48.722;9.110;2023-07-28T02:36:00;1.90;;;1.80;;
10677;SDS011;5387;48.722;9.110;2023-07-28T02:38:27;2.95;;;2.05;;
10677;SDS011;5387;48.722;9.110;2023-07-28T02:40:53;3.28;;;2.25;;
10677;SDS011;5387;48.722;9.110;2023-07-28T02:43:20;2.95;;;2.60;;
10677;SDS011;5387;48.722;9.110;2023-07-28T02:45:48;4.82;;;2.90;;
10677;SDS011;5387;48.722;9.110;2023-07-28T02:48:15;5.32;;;3.20;;
10677;SDS011;5387;48.722;9.110;2023-07-28T02:50:45;3.55;;;2.35;;
10677;SDS011;5387;48.722;9.110;2023-07-28T02:53:13;3.40;;;2.40;;
10677;SDS011;5387;48.722;9.110;2023-07-28T02:55:40;9.55;;;3.10;;
10677;SDS011;5387;48.722;9.110;2023-07-28T02:58:08;5.30;;;3.47;;
10677;SDS011;5387;48.722;9.110;2023-07-28T03:00:36;7.05;;;3.30;;
10677;SDS011;5387;48.722;9.110;2023-07-28T03:03:03;4.65;;;3.45;;
10677;SDS011;5387;48.722;9.110;2023-07-28T03:05:30;4.70;;;2.80;;
10677;SDS011;5387;48.722;9.110;2023-07-28T03:07:57;6.68;;;3.08;;
10677;SDS011;5387;48.722;9.110;2023-07-28T03:10:25;7.10;;;2.70;;
10677;SDS011;5387;48.722;9.110;2023-07-28T03:12:52;4.97;;;2.70;;
10677;SDS011;5387;48.722;9.110;2023-07-28T03:15:19;5.80;;;3.03;;
10677;SDS011;5387;48.722;9.110;2023-07-28T03:17:47;6.57;;;3.20;;
10677;SDS011;5387;48.722;9.110;2023-07-28T03:20:14;5.45;;;2.80;;
10677;SDS011;5387;48.722;9.110;2023-07-28T03:22:41;3.63;;;1.88;;
10677;SDS011;5387;48.722;9.110;2023-07-28T03:25:08;4.97;;;2.60;;
10677;SDS011;5387;48.722;9.110;2023-07-28T03:27:37;2.17;;;1.98;;
10677;SDS011;5387;48.722;9.110;2023-07-28T03:30:04;2.67;;;2.25;;
10677;SDS011;5387;48.722;9.110;2023-07-28T03:32:34;6.80;;;3.70;;
10677;SDS011;5387;48.722;9.110;2023-07-28T03:35:01;9.52;;;4.55;;
10677;SDS011;5387;48.722;9.110;2023-07-28T03:37:30;8.57;;;4.63;;
10677;SDS011;5387;48.722;9.110;2023-07-28T03:39:56;7.63;;;4.30;;
10677;SDS011;5387;48.722;9.110;2023-07-28T03:42:23;6.53;;;3.90;;
10677;SDS011;5387;48.722;9.110;2023-07-28T03:44:52;5.43;;;3.15;;
10677;SDS011;5387;48.722;9.110;2023-07-28T03:47:18;4.00;;;2.45;;
10677;SDS011;5387;48.722;9.110;2023-07-28T03:49:45;5.35;;;2.22;;
10677;SDS011;5387;48.722;9.110;2023-07-28T03:52:12;2.75;;;2.00;;
10677;SDS011;5387;48.722;9.110;2023-07-28T03:54:39;2.70;;;2.20;;
10677;SDS011;5387;48.722;9.110;2023-07-28T03:57:06;2.75;;;2.15;;
10677;SDS011;5387;48.722;9.110;2023-07-28T03:59:34;1.88;;;1.77;;
10677;SDS011;5387;48.722;9.110;2023-07-28T04:02:03;2.05;;;1.85;;
10677;SDS011;5387;48.722;9.110;2023-07-28T04:04:30;2.60;;;2.20;;
10677;SDS011;5387;48.722;9.110;2023-07-28T04:06:56;2.28;;;2.08;;
10677;SDS011;5387;48.722;9.110;2023-07-28T04:09:23;2.13;;;1.92;;
10677;SDS011;5387;48.722;9.110;2023-07-28T04:11:50;2.50;;;2.10;;
10677;SDS011;5387;48.722;9.110;2023-07-28T04:14:17;2.67;;;2.15;;
10677;SDS011;5387;48.722;9.110;2023-07-28T04:16:44;2.58;;;2.20;;
10677;SDS011;5387;48.722;9.110;2023-07-28T04:19:12;2.33;;;1.90;;
10677;SDS011;5387;48.722;9.110;2023-07-28T04:21:38;2.60;;;2.40;;
10677;SDS011;5387;48.722;9.110;2023-07-28T04:24:05;3.70;;;2.50;;
10677;SDS011;5387;48.722;9.110;2023-07-28T04:26:32;5.65;;;2.03;;
10677;SDS011;5387;48.722;9.110;2023-07-28T04:28:59;3.00;;;2.35;;
10677;SDS011;5387;48.722;9.110;2023-07-28T04:31:26;2.20;;;1.98;;
10677;SDS011;5387;48.722;9.110;2023-07-28T04:33:53;3.33;;;2.20;;
10677;SDS011;5387;48.722;9.110;2023-07-28T04:36:21;2.22;;;2.13;;
10677;SDS011;5387;48.722;9.110;2023-07-28T04:38:48;2.60;;;2.40;;
10677;SDS011;5387;48.722;9.110;2023-07-28T04:41:15;2.15;;;1.95;;
10677;SDS011;5387;48.722;9.110;2023-07-28T04:43:41;5.03;;;2.15;;
10677;SDS011;5387;48.722;9.110;2023-07-28T04:46:08;2.10;;;1.90;;
10677;SDS011;5387;48.722;9.110;2023-07-28T04:48:35;2.63;;;2.30;;
10677;SDS011;5387;48.722;9.110;2023-07-28T04:51:02;3.95;;;2.83;;
10677;SDS011;5387;48.722;9.110;2023-07-28T04:53:30;3.55;;;2.67;;
10677;SDS011;5387;48.722;9.110;2023-07-28T04:55:57;5.32;;;2.45;;
10677;SDS011;5387;48.722;9.110;2023-07-28T04:58:24;2.50;;;2.30;;
10677;SDS011;5387;48.722;9.110;2023-07-28T05:00:50;3.03;;;2.45;;
10677;SDS011;5387;48.722;9.110;2023-07-28T05:03:17;2.40;;;2.20;;
10677;SDS011;5387;48.722;9.110;2023-07-28T05:05:44;2.67;;;2.28;;
10677;SDS011;5387;48.722;9.110;2023-07-28T05:08:11;3.20;;;2.33;;
10677;SDS011;5387;48.722;9.110;2023-07-28T05:10:40;3.92;;;2.53;;
10677;SDS011;5387;48.722;9.110;2023-07-28T05:13:08;2.65;;;2.33;;
10677;SDS011;5387;48.722;9.110;2023-07-28T05:15:34;2.60;;;2.40;;
10677;SDS011;5387;48.722;9.110;2023-07-28T05:18:01;2.78;;;2.25;;
10677;SDS011;5387;48.722;9.110;2023-07-28T05:20:28;3.45;;;2.78;;
10677;SDS011;5387;48.722;9.110;2023-07-28T05:22:55;2.90;;;2.25;;
10677;SDS011;5387;48.722;9.110;2023-07-28T05:25:22;5.45;;;2.92;;
10677;SDS011;5387;48.722;9.110;2023-07-28T05:27:50;4.78;;;2.90;;
10677;SDS011;5387;48.722;9.110;2023-07-28T05:30:17;4.82;;;3.25;;
10677;SDS011;5387;48.722;9.110;2023-07-28T05:32:44;6.35;;;2.88;;
10677;SDS011;5387;48.722;9.110;2023-07-28T05:35:11;6.15;;;3.28;;
10677;SDS011;5387;48.722;9.110;2023-07-28T05:37:38;7.63;;;3.08;;
10677;SDS011;5387;48.722;9.110;2023-07-28T05:40:05;5.85;;;3.10;;
10677;SDS011;5387;48.722;9.110;2023-07-28T05:42:33;4.35;;;2.90;;
10677;SDS011;5387;48.722;9.110;2023-07-28T05:45:01;7.40;;;2.80;;
10677;SDS011;5387;48.722;9.110;2023-07-28T05:47:28;3.25;;;2.78;;
10677;SDS011;5387;48.722;9.110;2023-07-28T05:49:55;5.55;;;2.80;;
10677;SDS011;5387;48.722;9.110;2023-07-28T05:52:22;3.75;;;3.17;;
10677;SDS011;5387;48.722;9.110;2023-07-28T05:54:49;3.50;;;3.00;;
10677;SDS011;5387;48.722;9.110;2023-07-28T05:57:15;4.28;;;3.10;;
10677;SDS011;5387;48.722;9.110;2023-07-28T05:59:42;4.60;;;3.20;;
10677;SDS011;5387;48.722;9.110;2023-07-28T06:02:10;4.63;;;3.13;;
10677;SDS011;5387;48.722;9.110;2023-07-28T06:04:37;6.45;;;3.47;;
10677;SDS011;5387;48.722;9.110;2023-07-28T06:07:04;3.85;;;3.30;;
10677;SDS011;5387;48.722;9.110;2023-07-28T06:09:32;4.05;;;3.30;;
10677;SDS011;5387;48.722;9.110;2023-07-28T06:11:59;4.20;;;3.55;;
10677;SDS011;5387;48.722;9.110;2023-07-28T06:14:26;4.15;;;3.35;;
10677;SDS011;5387;48.722;9.110;2023-07-28T06:16:52;4.78;;;3.38;;
10677;SDS011;5387;48.722;9.110;2023-07-28T06:19:20;4.60;;;3.78;;
10677;SDS011;5387;48.722;9.110;2023-07-28T06:21:49;5.30;;;3.22;;
10677;SDS011;5387;48.722;9.110;2023-07-28T06:24:16;4.95;;;3.58;;
10677;SDS011;5387;48.722;9.110;2023-07-28T06:26:43;8.75;;;3.00;;
10677;SDS011;5387;48.722;9.110;2023-07-28T06:29:10;5.63;;;2.95;;
10677;SDS011;5387;48.722;9.110;2023-07-28T06:31:36;5.72;;;3.20;;
10677;SDS011;5387;48.722;9.110;2023-07-28T06:34:03;4.13;;;3.20;;
10677;SDS011;5387;48.722;9.110;2023-07-28T06:36:32;3.35;;;2.72;;
10677;SDS011;5387;48.722;9.110;2023-07-28T06:38:59;3.75;;;3.00;;
10677;SDS011;5387;48.722;9.110;2023-07-28T06:41:25;5.97;;;2.75;;
10677;SDS011;5387;48.722;9.110;2023-07-28T06:43:52;3.97;;;2.55;;
10677;SDS011;5387;48.722;9.110;2023-07-28T06:46:19;4.47;;;2.60;;
10677;SDS011;5387;48.722;9.110;2023-07-28T06:48:47;2.97;;;2.50;;
10677;SDS011;5387;48.722;9.110;2023-07-28T06:51:14;3.00;;;2.70;;
10677;SDS011;5387;48.722;9.110;2023-07-28T06:53:42;2.90;;;2.33;;
10677;SDS011;5387;48.722;9.110;2023-07-28T06:56:08;3.42;;;2.70;;
10677;SDS011;5387;48.722;9.110;2023-07-28T06:58:35;3.28;;;2.40;;
10677;SDS011;5387;48.722;9.110;2023-07-28T07:01:02;4.28;;;2.40;;
10677;SDS011;5387;48.722;9.110;2023-07-28T07:03:29;3.15;;;2.47;;
10677;SDS011;5387;48.722;9.110;2023-07-28T07:05:56;2.45;;;2.25;;
10677;SDS011;5387;48.722;9.110;2023-07-28T07:08:23;3.08;;;2.78;;
10677;SDS011;5387;48.722;9.110;2023-07-28T07:10:51;4.00;;;2.65;;
10677;SDS011;5387;48.722;9.110;2023-07-28T07:13:19;6.20;;;2.33;;
10677;SDS011;5387;48.722;9.110;2023-07-28T07:15:46;3.28;;;2.67;;
10677;SDS011;5387;48.722;9.110;2023-07-28T07:18:13;2.95;;;2.65;;
10677;SDS011;5387;48.722;9.110;2023-07-28T07:20:40;3.75;;;2.50;;
10677;SDS011;5387;48.722;9.110;2023-07-28T07:23:07;4.32;;;2.70;;
10677;SDS011;5387;48.722;9.110;2023-07-28T07:25:34;4.05;;;2.20;;
10677;SDS011;5387;48.722;9.110;2023-07-28T07:28:02;3.10;;;2.40;;
10677;SDS011;5387;48.722;9.110;2023-07-28T07:30:31;4.18;;;2.30;;
10677;SDS011;5387;48.722;9.110;2023-07-28T07:32:58;2.50;;;2.30;;
10677;SDS011;5387;48.722;9.110;2023-07-28T07:35:25;4.45;;;2.47;;
10677;SDS011;5387;48.722;9.110;2023-07-28T07:37:53;2.47;;;2.28;;
10677;SDS011;5387;48.722;9.110;2023-07-28T07:40:20;3.05;;;1.98;;
10677;SDS011;5387;48.722;9.110;2023-07-28T07:42:48;4.13;;;2.33;;
10677;SDS011;5387;48.722;9.110;2023-07-28T07:45:17;3.47;;;2.42;;
10677;SDS011;5387;48.722;9.110;2023-07-28T07:47:43;4.53;;;2.30;;
10677;SDS011;5387;48.722;9.110;2023-07-28T07:50:10;4.47;;;2.60;;
10677;SDS011;5387;48.722;9.110;2023-07-28T07:52:38;2.67;;;2.47;;
10677;SDS011;5387;48.722;9.110;2023-07-28T07:55:05;3.28;;;2.33;;
10677;SDS011;5387;48.722;9.110;2023-07-28T07:57:32;2.42;;;2.22;;
10677;SDS011;5387;48.722;9.110;2023-07-28T07:59:59;4.55;;;2.42;;
10677;SDS011;5387;48.722;9.110;2023-07-28T08:02:27;3.85;;;2.60;;
10677;SDS011;5387;48.722;9.110;2023-07-28T08:04:54;2.83;;;2.40;;
10677;SDS011;5387;48.722;9.110;2023-07-28T08:07:21;4.43;;;2.50;;
10677;SDS011;5387;48.722;9.110;2023-07-28T08:09:48;3.25;;;2.22;;
10677;SDS011;5387;48.722;9.110;2023-07-28T08:12:15;2.08;;;1.88;;
10677;SDS011;5387;48.722;9.110;2023-07-28T08:14:42;2.45;;;1.83;;
10677;SDS011;5387;48.722;9.110;2023-07-28T08:17:11;2.58;;;2.08;;
10677;SDS011;5387;48.722;9.110;2023-07-28T08:19:39;2.58;;;2.30;;
10677;SDS011;5387;48.722;9.110;2023-07-28T08:22:06;2.28;;;2.08;;
10677;SDS011;5387;48.722;9.110;2023-07-28T08:24:34;2.00;;;1.80;;
10677;SDS011;5387;48.722;9.110;2023-07-28T08:27:01;2.33;;;2.17;;
10677;SDS011;5387;48.722;9.110;2023-07-28T08:29:28;4.28;;;2.30;;
10677;SDS011;5387;48.722;9.110;2023-07-28T08:31:55;2.42;;;2.10;;
10677;SDS011;5387;48.722;9.110;2023-07-28T08:34:22;3.15;;;2.30;;
10677;SDS011;5387;48.722;9.110;2023-07-28T08:36:50;2.05;;;1.85;;
10677;SDS011;5387;48.722;9.110;2023-07-28T08:39:17;1.75;;;1.65;;
10677;SDS011;5387;48.722;9.110;2023-07-28T08:41:45;2.42;;;2.22;;
10677;SDS011;5387;48.722;9.110;2023-07-28T08:44:11;2.78;;;2.17;;
10677;SDS011;5387;48.722;9.110;2023-07-28T08:46:38;1.85;;;1.73;;
10677;SDS011;5387;48.722;9.110;2023-07-28T08:49:05;3.15;;;2.00;;
10677;SDS011;5387;48.722;9.110;2023-07-28T08:51:32;2.13;;;2.03;;
10677;SDS011;5387;48.722;9.110;2023-07-28T08:54:00;2.55;;;1.98;;
10677;SDS011;5387;48.722;9.110;2023-07-28T08:56:27;4.32;;;2.20;;
10677;SDS011;5387;48.722;9.110;2023-07-28T08:58:57;2.65;;;2.00;;
10677;SDS011;5387;48.722;9.110;2023-07-28T09:01:25;2.35;;;2.10;;
10677;SDS011;5387;48.722;9.110;2023-07-28T09:03:52;2.30;;;2.10;;
10677;SDS011;5387;48.722;9.110;2023-07-28T09:06:19;2.17;;;1.98;;
10677;SDS011;5387;48.722;9.110;2023-07-28T09:08:55;3.83;;;2.03;;
10677;SDS011;5387;48.722;9.110;2023-07-28T09:11:24;4.72;;;2.30;;
10677;SDS011;5387;48.722;9.110;2023-07-28T09:13:52;2.55;;;2.35;;
10677;SDS011;5387;48.722;9.110;2023-07-28T09:16:20;7.13;;;2.42;;
10677;SDS011;5387;48.722;9.110;2023-07-28T09:18:49;2.70;;;2.47;;
10677;SDS011;5387;48.722;9.110;2023-07-28T09:21:16;2.40;;;2.20;;
10677;SDS011;5387;48.722;9.110;2023-07-28T09:23:45;2.38;;;2.03;;
10677;SDS011;5387;48.722;9.110;2023-07-28T09:26:13;3.65;;;2.40;;
10677;SDS011;5387;48.722;9.110;2023-07-28T09:28:41;2.97;;;2.30;;
10677;SDS011;5387;48.722;9.110;2023-07-28T09:31:09;3.60;;;1.85;;
10677;SDS011;5387;48.722;9.110;2023-07-28T09:33:36;2.28;;;2.08;;
10677;SDS011;5387;48.722;9.110;2023-07-28T09:36:07;2.58;;;2.17;;
10677;SDS011;5387;48.722;9.110;2023-07-28T09:38:36;3.25;;;2.28;;
10677;SDS011;5387;48.722;9.110;2023-07-28T09:41:05;3.58;;;2.45;;
10677;SDS011;5387;48.722;9.110;2023-07-28T09:43:34;3.67;;;2.80;;
10677;SDS011;5387;48.722;9.110;2023-07-28T09:46:03;4.75;;;2.85;;
10677;SDS011;5387;48.722;9.110;2023-07-28T09:48:32;2.90;;;2.45;;
10677;SDS011;5387;48.722;9.110;2023-07-28T09:50:59;4.05;;;2.13;;
10677;SDS011;5387;48.722;9.110;2023-07-28T09:53:30;5.25;;;2.35;;
10677;SDS011;5387;48.722;9.110;2023-07-28T09:56:02;3.55;;;2.20;;
10677;SDS011;5387;48.722;9.110;2023-07-28T09:58:29;4.32;;;2.28;;
10677;SDS011;5387;48.722;9.110;2023-07-28T10:01:05;3.72;;;2.10;;
10677;SDS011;5387;48.722;9.110;2023-07-28T10:03:32;2.40;;;2.15;;
10677;SDS011;5387;48.722;9.110;2023-07-28T10:05:59;2.85;;;2.22;;
10677;SDS011;5387;48.722;9.110;2023-07-28T10:08:26;3.75;;;2.45;;
10677;SDS011;5387;48.722;9.110;2023-07-28T10:10:54;2.35;;;2.08;;
10677;SDS011;5387;48.722;9.110;2023-07-28T10:13:21;1.95;;;1.80;;
10677;SDS011;5387;48.722;9.110;2023-07-28T10:15:49;2.03;;;1.85;;
10677;SDS011;5387;48.722;9.110;2023-07-28T10:18:18;2.15;;;1.80;;
10677;SDS011;5387;48.722;9.110;2023-07-28T10:20:46;1.88;;;1.60;;
10677;SDS011;5387;48.722;9.110;2023-07-28T10:23:14;1.10;;;1.08;;
10677;SDS011;5387;48.722;9.110;2023-07-28T10:25:43;1.55;;;1.45;;
10677;SDS011;5387;48.722;9.110;2023-07-28T10:28:24;1.77;;;1.30;;
10677;SDS011;5387;48.722;9.110;2023-07-28T10:30:53;1.42;;;1.40;;
10677;SDS011;5387;48.722;9.110;2023-07-28T10:33:29;1.63;;;1.50;;
10677;SDS011;5387;48.722;9.110;2023-07-28T10:35:58;1.90;;;1.67;;
10677;SDS011;5387;48.722;9.110;2023-07-28T10:38:29;2.30;;;2.10;;
10677;SDS011;5387;48.722;9.110;2023-07-28T10:41:13;3.55;;;1.58;;
10677;SDS011;5387;48.722;9.110;2023-07-28T10:43:41;1.10;;;1.10;;
10677;SDS011;5387;48.722;9.110;2023-07-28T10:46:09;3.25;;;1.58;;
10677;SDS011;5387;48.722;9.110;2023-07-28T10:48:40;0.95;;;0.95;;
10677;SDS011;5387;48.722;9.110;2023-07-28T10:51:08;1.40;;;1.30;;
10677;SDS011;5387;48.722;9.110;2023-07-28T10:53:36;2.95;;;1.58;;
10677;SDS011;5387;48.722;9.110;2023-07-28T10:56:03;1.60;;;1.50;;
10677;SDS011;5387;48.722;9.110;2023-07-28T10:58:33;1.67;;;1.50;;
10677;SDS011;5387;48.722;9.110;2023-07-28T11:01:00;2.13;;;1.40;;
10677;SDS011;5387;48.722;9.110;2023-07-28T11:03:27;1.77;;;1.67;;
10677;SDS011;5387;48.722;9.110;2023-07-28T11:05:57;2.10;;;1.88;;
10677;SDS011;5387;48.722;9.110;2023-07-28T11:08:23;1.58;;;1.35;;
10677;SDS011;5387;48.722;9.110;2023-07-28T11:10:51;1.95;;;1.50;;
10677;SDS011;5387;48.722;9.110;2023-07-28T11:13:17;1.85;;;1.60;;
10677;SDS011;5387;48.722;9.110;2023-07-28T11:15:44;1.85;;;1.75;;
10677;SDS011;5387;48.722;9.110;2023-07-28T11:18:11;1.73;;;1.63;;
10677;SDS011;5387;48.722;9.110;2023-07-28T11:20:41;1.85;;;1.50;;
10677;SDS011;5387;48.722;9.110;2023-07-28T11:23:09;1.60;;;1.50;;
10677;SDS011;5387;48.722;9.110;2023-07-28T11:25:39;1.95;;;1.50;;
10677;SDS011;5387;48.722;9.110;2023-07-28T11:28:07;1.55;;;1.45;;
10677;SDS011;5387;48.722;9.110;2023-07-28T11:30:35;2.17;;;1.70;;
10677;SDS011;5387;48.722;9.110;2023-07-28T11:33:03;10.77;;;2.15;;
10677;SDS011;5387;48.722;9.110;2023-07-28T11:35:30;2.28;;;1.88;;
10677;SDS011;5387;48.722;9.110;2023-07-28T11:37:57;2.00;;;1.73;;
10677;SDS011;5387;48.722;9.110;2023-07-28T11:40:25;1.75;;;1.65;;
10677;SDS011;5387;48.722;9.110;2023-07-28T11:42:53;3.75;;;2.13;;
10677;SDS011;5387;48.722;9.110;2023-07-28T11:45:21;3.42;;;2.40;;
10677;SDS011;5387;48.722;9.110;2023-07-28T11:47:55;2.35;;;1.88;;
10677;SDS011;5387;48.722;9.110;2023-07-28T11:50:23;2.78;;;1.95;;
10677;SDS011;5387;48.722;9.110;2023-07-28T11:52:51;2.20;;;1.95;;
10677;SDS011;5387;48.722;9.110;2023-07-28T11:55:18;2.80;;;2.03;;
10677;SDS011;5387;48.722;9.110;2023-07-28T11:57:48;2.42;;;2.22;;
10677;SDS011;5387;48.722;9.110;2023-07-28T12:00:16;2.55;;;2.35;;
10677;SDS011;5387;48.722;9.110;2023-07-28T12:02:43;3.05;;;2.53;;
10677;SDS011;5387;48.722;9.110;2023-07-28T12:05:14;2.67;;;2.47;;
10677;SDS011;5387;48.722;9.110;2023-07-28T12:07:46;2.72;;;2.45;;
10677;SDS011;5387;48.722;9.110;2023-07-28T12:10:13;3.15;;;2.22;;
10677;SDS011;5387;48.722;9.110;2023-07-28T12:12:43;3.38;;;2.42;;
10677;SDS011;5387;48.722;9.110;2023-07-28T12:15:19;3.53;;;2.40;;
10677;SDS011;5387;48.722;9.110;2023-07-28T12:18:00;2.45;;;2.25;;
10677;SDS011;5387;48.722;9.110;2023-07-28T12:20:36;2.58;;;2.30;;
10677;SDS011;5387;48.722;9.110;2023-07-28T12:23:04;5.75;;;2.20;;
10677;SDS011;5387;48.722;9.110;2023-07-28T12:25:31;3.03;;;2.67;;
10677;SDS011;5387;48.722;9.110;2023-07-28T12:27:58;3.35;;;2.67;;
10677;SDS011;5387;48.722;9.110;2023-07-28T12:30:27;3.75;;;2.47;;
10677;SDS011;5387;48.722;9.110;2023-07-28T12:32:54;3.60;;;2.47;;
10677;SDS011;5387;48.722;9.110;2023-07-28T12:35:21;4.13;;;2.45;;
10677;SDS011;5387;48.722;9.110;2023-07-28T12:37:48;2.45;;;2.20;;
10677;SDS011;5387;48.722;9.110;2023-07-28T12:40:16;2.90;;;2.70;;
10677;SDS011;5387;48.722;9.110;2023-07-28T12:42:44;2.42;;;2.22;;
10677;SDS011;5387;48.722;9.110;2023-07-28T12:45:11;4.05;;;2.63;;
10677;SDS011;5387;48.722;9.110;2023-07-28T12:47:39;3.42;;;2.15;;
10677;SDS011;5387;48.722;9.110;2023-07-28T12:50:06;2.92;;;2.10;;
10677;SDS011;5387;48.722;9.110;2023-07-28T12:52:35;6.63;;;2.53;;
10677;SDS011;5387;48.722;9.110;2023-07-28T12:55:01;4.15;;;2.78;;
10677;SDS011;5387;48.722;9.110;2023-07-28T12:57:29;3.08;;;2.30;;
10677;SDS011;5387;48.722;9.110;2023-07-28T12:59:55;3.10;;;2.55;;
10677;SDS011;5387;48.722;9.110;2023-07-28T13:02:22;4.05;;;2.75;;
10677;SDS011;5387;48.722;9.110;2023-07-28T13:04:50;3.80;;;2.50;;
10677;SDS011;5387;48.722;9.110;2023-07-28T13:07:17;4.35;;;2.85;;
10677;SDS011;5387;48.722;9.110;2023-07-28T13:09:44;3.67;;;2.50;;
10677;SDS011;5387;48.722;9.110;2023-07-28T13:12:11;2.45;;;2.25;;
10677;SDS011;5387;48.722;9.110;2023-07-28T13:14:38;3.42;;;2.28;;
10677;SDS011;5387;48.722;9.110;2023-07-28T13:17:05;3.70;;;2.30;;
10677;SDS011;5387;48.722;9.110;2023-07-28T13:19:32;2.60;;;2.40;;
10677;SDS011;5387;48.722;9.110;2023-07-28T13:22:00;2.97;;;2.60;;
10677;SDS011;5387;48.722;9.110;2023-07-28T13:24:27;2.97;;;2.67;;
10677;SDS011;5387;48.722;9.110;2023-07-28T13:26:54;2.67;;;2.47;;
10677;SDS011;5387;48.722;9.110;2023-07-28T13:29:22;5.13;;;2.70;;
10677;SDS011;5387;48.722;9.110;2023-07-28T13:31:49;3.50;;;2.97;;
10677;SDS011;5387;48.722;9.110;2023-07-28T13:34:15;4.07;;;2.85;;
10677;SDS011;5387;48.722;9.110;2023-07-28T13:36:42;4.55;;;3.17;;
10677;SDS011;5387;48.722;9.110;2023-07-28T13:39:10;5.35;;;3.25;;
10677;SDS011;5387;48.722;9.110;2023-07-28T13:41:37;6.40;;;4.15;;
10677;SDS011;5387;48.722;9.110;2023-07-28T13:44:04;6.20;;;3.47;;
10677;SDS011;5387;48.722;9.110;2023-07-28T13:46:31;10.63;;;4.40;;
10677;SDS011;5387;48.722;9.110;2023-07-28T13:48:57;4.75;;;3.58;;
10677;SDS011;5387;48.722;9.110;2023-07-28T13:51:24;5.13;;;3.45;;
10677;SDS011;5387;48.722;9.110;2023-07-28T13:53:51;7.00;;;3.33;;
10677;SDS011;5387;48.722;9.110;2023-07-28T13:56:19;4.10;;;2.90;;
10677;SDS011;5387;48.722;9.110;2023-07-28T13:58:46;3.83;;;3.30;;
10677;SDS011;5387;48.722;9.110;2023-07-28T14:01:12;3.70;;;3.00;;
10677;SDS011;5387;48.722;9.110;2023-07-28T14:03:39;3.35;;;2.72;;
10677;SDS011;5387;48.722;9.110;2023-07-28T14:06:06;4.38;;;2.72;;
10677;SDS011;5387;48.722;9.110;2023-07-28T14:08:33;4.22;;;2.67;;
10677;SDS011;5387;48.722;9.110;2023-07-28T14:11:00;6.30;;;3.00;;
10677;SDS011;5387;48.722;9.110;2023-07-28T14:13:28;4.65;;;3.08;;
10677;SDS011;5387;48.722;9.110;2023-07-28T14:15:55;8.90;;;3.60;;
10677;SDS011;5387;48.722;9.110;2023-07-28T14:18:22;3.35;;;3.05;;
10677;SDS011;5387;48.722;9.110;2023-07-28T14:20:48;6.07;;;3.38;;
10677;SDS011;5387;48.722;9.110;2023-07-28T14:23:22;4.15;;;3.00;;
10677;SDS011;5387;48.722;9.110;2023-07-28T14:25:50;4.10;;;3.13;;
10677;SDS011;5387;48.722;9.110;2023-07-28T14:28:17;6.40;;;3.20;;
10677;SDS011;5387;48.722;9.110;2023-07-28T14:30:45;3.63;;;2.92;;
10677;SDS011;5387;48.722;9.110;2023-07-28T14:33:12;3.40;;;3.05;;
10677;SDS011;5387;48.722;9.110;2023-07-28T14:35:40;3.78;;;3.17;;
10677;SDS011;5387;48.722;9.110;2023-07-28T14:38:07;2.95;;;2.72;;
10677;SDS011;5387;48.722;9.110;2023-07-28T14:40:34;5.97;;;2.95;;
10677;SDS011;5387;48.722;9.110;2023-07-28T14:43:01;3.47;;;3.17;;
10677;SDS011;5387;48.722;9.110;2023-07-28T14:45:28;3.05;;;2.83;;
10677;SDS011;5387;48.722;9.110;2023-07-28T14:47:56;4.07;;;2.85;;
10677;SDS011;5387;48.722;9.110;2023-07-28T14:50:22;3.50;;;3.20;;
10677;SDS011;5387;48.722;9.110;2023-07-28T14:52:49;5.65;;;3.47;;
10677;SDS011;5387;48.722;9.110;2023-07-28T14:55:16;5.43;;;3.65;;
10677;SDS011;5387;48.722;9.110;2023-07-28T14:57:43;4.50;;;3.38;;
10677;SDS011;5387;48.722;9.110;2023-07-28T15:00:10;9.05;;;3.45;;
10677;SDS011;5387;48.722;9.110;2023-07-28T15:02:37;8.52;;;4.07;;